sensor_id;sensor_type;location;lat;lon;timestamp;pressure;altitude;pressure_sealevel;temperature;humidity
12987;BME280;58897;51.960;5.582;2023-02-15T00:01:49;102651.69;;;7.16;100.00
12987;BME280;58897;51.960;5.582;2023-02-15T00:04:18;102644.09;;;6.94;100.00
12987;BME280;58897;51.960;5.582;2023-02-15T00:06:45;102651.38;;;6.78;100.00
12987;BME280;58897;51.960;5.582;2023-02-15T00:09:12;102649.97;;;6.87;100.00
12987;BME280;58897;51.960;5.582;2023-02-15T00:11:39;102648.91;;;6.89;100.00
12987;BME280;58897;51.960;5.582;2023-02-15T00:16:37;102634.03;;;6.83;100.00
12987;BME280;58897;51.960;5.582;2023-02-15T00:19:04;102633.47;;;6.93;100.00
12987;BME280;58897;51.960;5.582;2023-02-15T00:21:32;102623.50;;;6.66;100.00
12987;BME280;58897;51.960;5.582;2023-02-15T00:24:00;102620.78;;;6.95;100.00
12987;BME280;58897;51.960;5.582;2023-02-15T00:26:27;102620.22;;;6.75;100.00
12987;BME280;58897;51.960;5.582;2023-02-15T00:28:55;102615.44;;;6.66;100.00
12987;BME280;58897;51.960;5.582;2023-02-15T00:31:22;102619.44;;;6.73;100.00
12987;BME280;58897;51.960;5.582;2023-02-15T00:33:48;102618.00;;;6.68;100.00
12987;BME280;58897;51.960;5.582;2023-02-15T00:36:15;102615.63;;;6.63;100.00
12987;BME280;58897;51.960;5.582;2023-02-15T00:38:41;102618.19;;;6.65;100.00
12987;BME280;58897;51.960;5.582;2023-02-15T00:41:08;102612.72;;;6.52;100.00
12987;BME280;58897;51.960;5.582;2023-02-15T00:43:36;102606.41;;;6.67;100.00
12987;BME280;58897;51.960;5.582;2023-02-15T00:46:04;102608.44;;;6.64;100.00
12987;BME280;58897;51.960;5.582;2023-02-15T00:48:31;102604.19;;;6.60;100.00
12987;BME280;58897;51.960;5.582;2023-02-15T00:50:59;102608.09;;;6.26;100.00
12987;BME280;58897;51.960;5.582;2023-02-15T00:53:26;102603.31;;;6.45;100.00
12987;BME280;58897;51.960;5.582;2023-02-15T00:55:53;102605.47;;;6.54;100.00
12987;BME280;58897;51.960;5.582;2023-02-15T00:58:20;102606.78;;;6.47;100.00
12987;BME280;58897;51.960;5.582;2023-02-15T01:00:47;102601.19;;;6.36;100.00
12987;BME280;58897;51.960;5.582;2023-02-15T01:03:15;102601.59;;;6.30;100.00
12987;BME280;58897;51.960;5.582;2023-02-15T01:05:42;102600.47;;;6.04;100.00
12987;BME280;58897;51.960;5.582;2023-02-15T01:08:09;102596.00;;;6.19;100.00
12987;BME280;58897;51.960;5.582;2023-02-15T01:10:36;102595.38;;;6.00;100.00
12987;BME280;58897;51.960;5.582;2023-02-15T01:13:02;102602.34;;;5.88;100.00
12987;BME280;58897;51.960;5.582;2023-02-15T01:15:29;102592.78;;;5.98;100.00
12987;BME280;58897;51.960;5.582;2023-02-15T01:17:56;102584.97;;;6.09;100.00
12987;BME280;58897;51.960;5.582;2023-02-15T01:20:25;102581.78;;;6.03;100.00
12987;BME280;58897;51.960;5.582;2023-02-15T01:22:52;102582.53;;;5.91;100.00
12987;BME280;58897;51.960;5.582;2023-02-15T01:25:20;102576.00;;;5.95;100.00
12987;BME280;58897;51.960;5.582;2023-02-15T01:27:47;102581.13;;;5.99;100.00
12987;BME280;58897;51.960;5.582;2023-02-15T01:30:15;102587.38;;;5.69;100.00
12987;BME280;58897;51.960;5.582;2023-02-15T01:32:42;102587.41;;;5.53;100.00
12987;BME280;58897;51.960;5.582;2023-02-15T01:35:09;102581.22;;;5.52;100.00
12987;BME280;58897;51.960;5.582;2023-02-15T01:37:36;102587.78;;;5.47;100.00
12987;BME280;58897;51.960;5.582;2023-02-15T01:40:05;102583.69;;;5.55;100.00
12987;BME280;58897;51.960;5.582;2023-02-15T01:42:31;102576.63;;;5.54;100.00
12987;BME280;58897;51.960;5.582;2023-02-15T01:45:00;102578.09;;;5.44;100.00
12987;BME280;58897;51.960;5.582;2023-02-15T01:47:43;102577.31;;;5.27;100.00
12987;BME280;58897;51.960;5.582;2023-02-15T01:53:17;102570.69;;;5.34;100.00
12987;BME280;58897;51.960;5.582;2023-02-15T01:55:37;102565.56;;;5.29;100.00
12987;BME280;58897;51.960;5.582;2023-02-15T01:58:06;102564.78;;;5.27;100.00
12987;BME280;58897;51.960;5.582;2023-02-15T02:00:34;102569.09;;;5.30;100.00
12987;BME280;58897;51.960;5.582;2023-02-15T02:03:01;102561.88;;;5.32;100.00
12987;BME280;58897;51.960;5.582;2023-02-15T02:05:30;102562.53;;;5.35;100.00
12987;BME280;58897;51.960;5.582;2023-02-15T02:07:58;102552.84;;;5.48;100.00
12987;BME280;58897;51.960;5.582;2023-02-15T02:10:26;102551.22;;;5.15;100.00
12987;BME280;58897;51.960;5.582;2023-02-15T02:12:59;102564.97;;;5.24;100.00
12987;BME280;58897;51.960;5.582;2023-02-15T02:15:36;102565.22;;;5.20;100.00
12987;BME280;58897;51.960;5.582;2023-02-15T02:18:21;102554.44;;;5.21;100.00
12987;BME280;58897;51.960;5.582;2023-02-15T02:21:25;102557.72;;;5.11;100.00
12987;BME280;58897;51.960;5.582;2023-02-15T02:35:33;102532.47;;;5.15;100.00
12987;BME280;58897;51.960;5.582;2023-02-15T02:41:05;102533.69;;;5.25;100.00
12987;BME280;58897;51.960;5.582;2023-02-15T02:46:39;102530.34;;;5.06;100.00
12987;BME280;58897;51.960;5.582;2023-02-15T02:49:09;102513.56;;;5.18;100.00
12987;BME280;58897;51.960;5.582;2023-02-15T02:51:36;102513.53;;;5.33;100.00
12987;BME280;58897;51.960;5.582;2023-02-15T02:54:05;102515.47;;;5.16;100.00
12987;BME280;58897;51.960;5.582;2023-02-15T02:56:37;102514.31;;;5.20;100.00
12987;BME280;58897;51.960;5.582;2023-02-15T02:59:12;102514.00;;;4.94;100.00
12987;BME280;58897;51.960;5.582;2023-02-15T03:01:49;102511.75;;;4.87;100.00
12987;BME280;58897;51.960;5.582;2023-02-15T03:04:21;102505.88;;;4.96;100.00
12987;BME280;58897;51.960;5.582;2023-02-15T03:06:53;102500.69;;;4.93;100.00
12987;BME280;58897;51.960;5.582;2023-02-15T03:11:51;102489.38;;;4.88;100.00
12987;BME280;58897;51.960;5.582;2023-02-15T03:14:18;102484.13;;;4.55;100.00
12987;BME280;58897;51.960;5.582;2023-02-15T03:16:47;102497.94;;;4.63;100.00
12987;BME280;58897;51.960;5.582;2023-02-15T03:19:22;102487.13;;;4.49;100.00
12987;BME280;58897;51.960;5.582;2023-02-15T03:21:53;102489.78;;;4.49;100.00
12987;BME280;58897;51.960;5.582;2023-02-15T03:24:41;102490.47;;;4.37;100.00
12987;BME280;58897;51.960;5.582;2023-02-15T03:27:19;102496.03;;;4.65;100.00
12987;BME280;58897;51.960;5.582;2023-02-15T03:29:51;102487.66;;;4.56;100.00
12987;BME280;58897;51.960;5.582;2023-02-15T03:32:19;102484.00;;;4.57;100.00
12987;BME280;58897;51.960;5.582;2023-02-15T03:34:47;102481.00;;;4.47;100.00
12987;BME280;58897;51.960;5.582;2023-02-15T03:37:21;102477.19;;;4.67;100.00
12987;BME280;58897;51.960;5.582;2023-02-15T03:39:59;102471.84;;;4.51;100.00
12987;BME280;58897;51.960;5.582;2023-02-15T03:42:58;102475.81;;;4.60;100.00
12987;BME280;58897;51.960;5.582;2023-02-15T03:45:30;102467.19;;;4.70;100.00
12987;BME280;58897;51.960;5.582;2023-02-15T03:48:00;102467.44;;;4.50;100.00
12987;BME280;58897;51.960;5.582;2023-02-15T03:50:30;102466.44;;;4.20;100.00
12987;BME280;58897;51.960;5.582;2023-02-15T03:53:18;102468.75;;;4.59;100.00
12987;BME280;58897;51.960;5.582;2023-02-15T03:55:53;102465.72;;;4.49;100.00
12987;BME280;58897;51.960;5.582;2023-02-15T03:58:20;102463.84;;;4.18;100.00
12987;BME280;58897;51.960;5.582;2023-02-15T04:01:15;102467.78;;;4.44;100.00
12987;BME280;58897;51.960;5.582;2023-02-15T04:04:13;102464.00;;;4.48;100.00
12987;BME280;58897;51.960;5.582;2023-02-15T04:06:42;102466.03;;;4.27;100.00
12987;BME280;58897;51.960;5.582;2023-02-15T04:09:09;102468.69;;;4.12;100.00
12987;BME280;58897;51.960;5.582;2023-02-15T04:11:53;102462.94;;;4.35;100.00
12987;BME280;58897;51.960;5.582;2023-02-15T04:14:20;102466.22;;;4.24;100.00
12987;BME280;58897;51.960;5.582;2023-02-15T04:17:06;102460.16;;;4.21;100.00
12987;BME280;58897;51.960;5.582;2023-02-15T04:19:33;102470.03;;;4.03;100.00
12987;BME280;58897;51.960;5.582;2023-02-15T04:22:18;102468.28;;;3.69;100.00
12987;BME280;58897;51.960;5.582;2023-02-15T04:25:03;102468.66;;;3.79;100.00
12987;BME280;58897;51.960;5.582;2023-02-15T04:27:44;102465.06;;;3.80;100.00
12987;BME280;58897;51.960;5.582;2023-02-15T04:30:12;102460.28;;;4.02;100.00
12987;BME280;58897;51.960;5.582;2023-02-15T04:32:39;102465.84;;;3.82;100.00
12987;BME280;58897;51.960;5.582;2023-02-15T04:35:06;102462.59;;;3.75;100.00
12987;BME280;58897;51.960;5.582;2023-02-15T04:37:33;102467.25;;;3.72;100.00
12987;BME280;58897;51.960;5.582;2023-02-15T04:40:00;102460.38;;;4.01;100.00
12987;BME280;58897;51.960;5.582;2023-02-15T04:42:26;102463.19;;;3.65;100.00
12987;BME280;58897;51.960;5.582;2023-02-15T04:44:54;102457.66;;;3.68;100.00
12987;BME280;58897;51.960;5.582;2023-02-15T04:47:20;102464.50;;;3.73;100.00
12987;BME280;58897;51.960;5.582;2023-02-15T04:49:47;102456.09;;;3.64;100.00
12987;BME280;58897;51.960;5.582;2023-02-15T04:52:13;102457.78;;;3.49;100.00
12987;BME280;58897;51.960;5.582;2023-02-15T04:54:40;102456.03;;;3.48;100.00
12987;BME280;58897;51.960;5.582;2023-02-15T04:57:06;102459.25;;;3.55;100.00
12987;BME280;58897;51.960;5.582;2023-02-15T04:59:33;102446.13;;;3.50;100.00
12987;BME280;58897;51.960;5.582;2023-02-15T05:01:59;102446.13;;;3.33;100.00
12987;BME280;58897;51.960;5.582;2023-02-15T05:04:26;102447.16;;;3.48;100.00
12987;BME280;58897;51.960;5.582;2023-02-15T05:06:53;102450.53;;;3.17;100.00
12987;BME280;58897;51.960;5.582;2023-02-15T05:09:19;102447.69;;;3.37;100.00
12987;BME280;58897;51.960;5.582;2023-02-15T05:11:46;102432.75;;;3.50;100.00
12987;BME280;58897;51.960;5.582;2023-02-15T05:14:12;102440.63;;;3.53;100.00
12987;BME280;58897;51.960;5.582;2023-02-15T05:16:39;102429.28;;;3.83;100.00
12987;BME280;58897;51.960;5.582;2023-02-15T05:19:05;102432.66;;;3.69;100.00
12987;BME280;58897;51.960;5.582;2023-02-15T05:21:32;102430.88;;;3.52;100.00
12987;BME280;58897;51.960;5.582;2023-02-15T05:23:59;102425.47;;;3.54;100.00
12987;BME280;58897;51.960;5.582;2023-02-15T05:26:26;102436.84;;;3.40;100.00
12987;BME280;58897;51.960;5.582;2023-02-15T05:29:11;102431.97;;;3.31;100.00
12987;BME280;58897;51.960;5.582;2023-02-15T05:31:38;102436.00;;;3.40;100.00
12987;BME280;58897;51.960;5.582;2023-02-15T05:34:04;102438.28;;;3.30;100.00
12987;BME280;58897;51.960;5.582;2023-02-15T05:36:31;102435.91;;;3.24;100.00
12987;BME280;58897;51.960;5.582;2023-02-15T05:38:57;102429.06;;;3.19;100.00
12987;BME280;58897;51.960;5.582;2023-02-15T05:41:24;102435.31;;;3.36;100.00
12987;BME280;58897;51.960;5.582;2023-02-15T05:43:51;102436.22;;;3.18;100.00
12987;BME280;58897;51.960;5.582;2023-02-15T05:46:20;102437.59;;;2.91;100.00
12987;BME280;58897;51.960;5.582;2023-02-15T05:48:47;102438.72;;;3.21;100.00
12987;BME280;58897;51.960;5.582;2023-02-15T05:51:13;102439.25;;;2.93;100.00
12987;BME280;58897;51.960;5.582;2023-02-15T05:53:42;102443.34;;;3.00;100.00
12987;BME280;58897;51.960;5.582;2023-02-15T05:56:11;102443.97;;;3.05;100.00
12987;BME280;58897;51.960;5.582;2023-02-15T05:58:40;102441.78;;;2.96;100.00
12987;BME280;58897;51.960;5.582;2023-02-15T06:01:11;102443.38;;;2.82;100.00
12987;BME280;58897;51.960;5.582;2023-02-15T06:03:38;102427.84;;;2.90;100.00
12987;BME280;58897;51.960;5.582;2023-02-15T06:06:05;102438.91;;;2.82;100.00
12987;BME280;58897;51.960;5.582;2023-02-15T06:08:34;102438.16;;;2.62;100.00
12987;BME280;58897;51.960;5.582;2023-02-15T06:11:01;102441.53;;;2.84;100.00
12987;BME280;58897;51.960;5.582;2023-02-15T06:13:28;102445.59;;;2.74;100.00
12987;BME280;58897;51.960;5.582;2023-02-15T06:15:55;102449.81;;;2.78;100.00
12987;BME280;58897;51.960;5.582;2023-02-15T06:18:21;102443.06;;;2.71;100.00
12987;BME280;58897;51.960;5.582;2023-02-15T06:20:48;102443.06;;;2.71;100.00
12987;BME280;58897;51.960;5.582;2023-02-15T06:23:15;102442.75;;;2.77;100.00
12987;BME280;58897;51.960;5.582;2023-02-15T06:25:42;102441.22;;;2.90;100.00
12987;BME280;58897;51.960;5.582;2023-02-15T06:28:08;102437.13;;;3.00;100.00
12987;BME280;58897;51.960;5.582;2023-02-15T06:30:35;102425.19;;;2.90;100.00
12987;BME280;58897;51.960;5.582;2023-02-15T06:33:01;102430.69;;;2.87;100.00
12987;BME280;58897;51.960;5.582;2023-02-15T06:35:28;102423.78;;;3.00;100.00
12987;BME280;58897;51.960;5.582;2023-02-15T06:37:54;102434.09;;;2.72;100.00
12987;BME280;58897;51.960;5.582;2023-02-15T06:40:21;102427.84;;;2.73;100.00
12987;BME280;58897;51.960;5.582;2023-02-15T06:42:47;102429.59;;;2.55;100.00
12987;BME280;58897;51.960;5.582;2023-02-15T06:45:14;102427.13;;;2.50;100.00
12987;BME280;58897;51.960;5.582;2023-02-15T06:47:41;102434.03;;;2.73;100.00
12987;BME280;58897;51.960;5.582;2023-02-15T06:50:08;102438.00;;;2.65;100.00
12987;BME280;58897;51.960;5.582;2023-02-15T06:52:35;102439.28;;;2.75;100.00
12987;BME280;58897;51.960;5.582;2023-02-15T06:55:02;102430.28;;;2.77;100.00
12987;BME280;58897;51.960;5.582;2023-02-15T06:57:28;102433.41;;;2.49;100.00
12987;BME280;58897;51.960;5.582;2023-02-15T06:59:55;102433.84;;;2.59;100.00
12987;BME280;58897;51.960;5.582;2023-02-15T07:02:21;102434.28;;;2.50;100.00
12987;BME280;58897;51.960;5.582;2023-02-15T07:04:48;102428.88;;;2.87;100.00
12987;BME280;58897;51.960;5.582;2023-02-15T07:07:14;102424.44;;;3.05;100.00
12987;BME280;58897;51.960;5.582;2023-02-15T07:09:41;102420.44;;;2.96;100.00
12987;BME280;58897;51.960;5.582;2023-02-15T07:12:09;102425.53;;;3.01;100.00
12987;BME280;58897;51.960;5.582;2023-02-15T07:14:54;102423.38;;;2.73;100.00
12987;BME280;58897;51.960;5.582;2023-02-15T07:17:21;102417.91;;;2.93;100.00
12987;BME280;58897;51.960;5.582;2023-02-15T07:20:08;102411.34;;;3.18;100.00
12987;BME280;58897;51.960;5.582;2023-02-15T07:22:35;102416.66;;;3.00;100.00
12987;BME280;58897;51.960;5.582;2023-02-15T07:25:03;102408.34;;;3.24;100.00
12987;BME280;58897;51.960;5.582;2023-02-15T07:27:30;102412.84;;;2.87;100.00
12987;BME280;58897;51.960;5.582;2023-02-15T07:29:58;102408.44;;;3.05;100.00
12987;BME280;58897;51.960;5.582;2023-02-15T07:32:30;102404.72;;;2.90;100.00
12987;BME280;58897;51.960;5.582;2023-02-15T07:34:57;102405.72;;;2.88;100.00
12987;BME280;58897;51.960;5.582;2023-02-15T07:37:24;102397.66;;;2.89;100.00
12987;BME280;58897;51.960;5.582;2023-02-15T07:39:51;102396.63;;;3.09;100.00
12987;BME280;58897;51.960;5.582;2023-02-15T07:42:17;102389.50;;;3.09;100.00
12987;BME280;58897;51.960;5.582;2023-02-15T07:44:45;102384.06;;;2.94;100.00
12987;BME280;58897;51.960;5.582;2023-02-15T07:47:12;102389.81;;;3.03;100.00
12987;BME280;58897;51.960;5.582;2023-02-15T07:49:38;102384.00;;;3.13;100.00
12987;BME280;58897;51.960;5.582;2023-02-15T07:52:05;102382.34;;;3.10;100.00
12987;BME280;58897;51.960;5.582;2023-02-15T07:54:31;102369.53;;;3.17;100.00
12987;BME280;58897;51.960;5.582;2023-02-15T07:56:58;102373.47;;;3.44;100.00
12987;BME280;58897;51.960;5.582;2023-02-15T07:59:26;102369.75;;;3.46;100.00
12987;BME280;58897;51.960;5.582;2023-02-15T08:01:53;102364.25;;;3.49;100.00
12987;BME280;58897;51.960;5.582;2023-02-15T08:04:23;102366.41;;;3.26;100.00
12987;BME280;58897;51.960;5.582;2023-02-15T08:06:52;102361.63;;;3.15;100.00
12987;BME280;58897;51.960;5.582;2023-02-15T08:09:19;102358.00;;;3.33;100.00
12987;BME280;58897;51.960;5.582;2023-02-15T08:11:46;102364.00;;;3.54;100.00
12987;BME280;58897;51.960;5.582;2023-02-15T08:14:15;102375.25;;;3.26;100.00
12987;BME280;58897;51.960;5.582;2023-02-15T08:16:45;102364.09;;;3.18;100.00
12987;BME280;58897;51.960;5.582;2023-02-15T08:19:23;102369.00;;;3.10;100.00
12987;BME280;58897;51.960;5.582;2023-02-15T08:21:58;102362.47;;;3.33;100.00
12987;BME280;58897;51.960;5.582;2023-02-15T08:24:27;102357.63;;;3.56;100.00
12987;BME280;58897;51.960;5.582;2023-02-15T08:26:54;102353.63;;;3.48;100.00
12987;BME280;58897;51.960;5.582;2023-02-15T08:29:27;102352.66;;;3.33;100.00
12987;BME280;58897;51.960;5.582;2023-02-15T08:32:01;102355.44;;;3.47;100.00
12987;BME280;58897;51.960;5.582;2023-02-15T08:34:38;102349.78;;;3.53;100.00
12987;BME280;58897;51.960;5.582;2023-02-15T08:37:05;102348.50;;;3.60;100.00
12987;BME280;58897;51.960;5.582;2023-02-15T08:39:32;102342.97;;;3.96;100.00
12987;BME280;58897;51.960;5.582;2023-02-15T08:41:59;102346.44;;;3.65;100.00
12987;BME280;58897;51.960;5.582;2023-02-15T08:44:25;102346.25;;;4.01;100.00
12987;BME280;58897;51.960;5.582;2023-02-15T08:46:52;102338.25;;;4.17;100.00
12987;BME280;58897;51.960;5.582;2023-02-15T08:49:20;102342.13;;;4.27;100.00
12987;BME280;58897;51.960;5.582;2023-02-15T08:51:48;102329.94;;;4.82;100.00
12987;BME280;58897;51.960;5.582;2023-02-15T08:54:17;102325.09;;;5.89;100.00
12987;BME280;58897;51.960;5.582;2023-02-15T08:56:44;102308.41;;;7.05;100.00
12987;BME280;58897;51.960;5.582;2023-02-15T08:59:16;102308.09;;;7.10;100.00
12987;BME280;58897;51.960;5.582;2023-02-15T09:01:44;102311.75;;;7.59;100.00
12987;BME280;58897;51.960;5.582;2023-02-15T09:04:11;102311.09;;;7.18;100.00
12987;BME280;58897;51.960;5.582;2023-02-15T09:06:40;102311.28;;;6.90;100.00
12987;BME280;58897;51.960;5.582;2023-02-15T09:09:07;102301.56;;;8.00;100.00
12987;BME280;58897;51.960;5.582;2023-02-15T09:11:36;102303.31;;;8.61;100.00
12987;BME280;58897;51.960;5.582;2023-02-15T09:14:06;102303.44;;;7.75;100.00
12987;BME280;58897;51.960;5.582;2023-02-15T09:16:36;102301.22;;;7.56;100.00
12987;BME280;58897;51.960;5.582;2023-02-15T09:19:04;102292.84;;;8.46;100.00
12987;BME280;58897;51.960;5.582;2023-02-15T09:21:32;102299.88;;;7.99;100.00
12987;BME280;58897;51.960;5.582;2023-02-15T09:24:02;102297.97;;;7.01;100.00
12987;BME280;58897;51.960;5.582;2023-02-15T09:26:30;102305.16;;;7.88;100.00
12987;BME280;58897;51.960;5.582;2023-02-15T09:28:59;102291.78;;;9.29;100.00
12987;BME280;58897;51.960;5.582;2023-02-15T09:31:29;102296.53;;;8.80;100.00
12987;BME280;58897;51.960;5.582;2023-02-15T09:33:56;102289.03;;;8.72;100.00
12987;BME280;58897;51.960;5.582;2023-02-15T09:36:30;102293.28;;;8.40;100.00
12987;BME280;58897;51.960;5.582;2023-02-15T09:38:59;102302.13;;;7.93;100.00
12987;BME280;58897;51.960;5.582;2023-02-15T10:03:50;102284.53;;;10.07;100.00
12987;BME280;58897;51.960;5.582;2023-02-15T10:09:17;102288.97;;;9.86;100.00
12987;BME280;58897;51.960;5.582;2023-02-15T10:18:25;102287.31;;;10.39;100.00
12987;BME280;58897;51.960;5.582;2023-02-15T10:23:29;102290.78;;;11.35;100.00
12987;BME280;58897;51.960;5.582;2023-02-15T10:28:53;102279.97;;;10.93;100.00
12987;BME280;58897;51.960;5.582;2023-02-15T10:31:49;102284.91;;;10.88;100.00
12987;BME280;58897;51.960;5.582;2023-02-15T10:34:35;102285.09;;;10.76;100.00
12987;BME280;58897;51.960;5.582;2023-02-15T10:37:32;102284.00;;;11.20;100.00
12987;BME280;58897;51.960;5.582;2023-02-15T10:40:33;102295.13;;;11.05;100.00
12987;BME280;58897;51.960;5.582;2023-02-15T10:49:22;102289.28;;;12.02;100.00
12987;BME280;58897;51.960;5.582;2023-02-15T10:51:53;102284.41;;;13.32;100.00
12987;BME280;58897;51.960;5.582;2023-02-15T10:54:32;102290.22;;;12.41;100.00
12987;BME280;58897;51.960;5.582;2023-02-15T10:57:05;102273.69;;;12.73;100.00
12987;BME280;58897;51.960;5.582;2023-02-15T11:02:33;102279.91;;;13.50;100.00
12987;BME280;58897;51.960;5.582;2023-02-15T11:05:16;102275.34;;;13.41;100.00
12987;BME280;58897;51.960;5.582;2023-02-15T11:07:47;102274.56;;;13.95;100.00
12987;BME280;58897;51.960;5.582;2023-02-15T11:13:19;102261.03;;;14.93;95.37
12987;BME280;58897;51.960;5.582;2023-02-15T11:15:52;102260.09;;;14.84;91.47
12987;BME280;58897;51.960;5.582;2023-02-15T11:18:33;102262.94;;;14.57;93.49
12987;BME280;58897;51.960;5.582;2023-02-15T11:21:04;102259.44;;;14.47;99.42
12987;BME280;58897;51.960;5.582;2023-02-15T11:23:41;102253.78;;;14.03;98.58
12987;BME280;58897;51.960;5.582;2023-02-15T11:26:15;102255.91;;;14.09;100.00
12987;BME280;58897;51.960;5.582;2023-02-15T11:28:49;102256.22;;;13.42;100.00
12987;BME280;58897;51.960;5.582;2023-02-15T11:31:37;102248.28;;;12.83;100.00
12987;BME280;58897;51.960;5.582;2023-02-15T11:34:18;102243.50;;;13.43;100.00
12987;BME280;58897;51.960;5.582;2023-02-15T11:36:49;102246.47;;;13.49;100.00
12987;BME280;58897;51.960;5.582;2023-02-15T11:39:17;102237.06;;;13.44;100.00
12987;BME280;58897;51.960;5.582;2023-02-15T11:41:49;102241.41;;;12.98;100.00
12987;BME280;58897;51.960;5.582;2023-02-15T11:44:25;102242.50;;;13.44;100.00
12987;BME280;58897;51.960;5.582;2023-02-15T11:46:53;102223.09;;;14.20;100.00
12987;BME280;58897;51.960;5.582;2023-02-15T11:49:32;102216.63;;;14.31;95.38
12987;BME280;58897;51.960;5.582;2023-02-15T11:52:06;102211.25;;;14.57;98.10
12987;BME280;58897;51.960;5.582;2023-02-15T11:54:39;102211.97;;;14.14;98.83
12987;BME280;58897;51.960;5.582;2023-02-15T11:59:40;102200.31;;;13.77;100.00
12987;BME280;58897;51.960;5.582;2023-02-15T12:02:20;102189.94;;;14.17;100.00
12987;BME280;58897;51.960;5.582;2023-02-15T12:05:17;102197.88;;;14.63;96.33
12987;BME280;58897;51.960;5.582;2023-02-15T12:07:50;102177.69;;;14.48;95.39
12987;BME280;58897;51.960;5.582;2023-02-15T12:10:26;102177.97;;;14.10;97.34
12987;BME280;58897;51.960;5.582;2023-02-15T12:15:42;102183.63;;;15.13;92.53
12987;BME280;58897;51.960;5.582;2023-02-15T12:18:39;102179.41;;;14.93;94.97
12987;BME280;58897;51.960;5.582;2023-02-15T12:21:09;102181.75;;;15.73;92.70
12987;BME280;58897;51.960;5.582;2023-02-15T12:23:46;102184.69;;;15.20;92.62
12987;BME280;58897;51.960;5.582;2023-02-15T12:26:23;102186.72;;;14.31;95.90
12987;BME280;58897;51.960;5.582;2023-02-15T12:28:50;102180.72;;;14.45;98.63
12987;BME280;58897;51.960;5.582;2023-02-15T12:31:25;102180.41;;;15.17;95.95
12987;BME280;58897;51.960;5.582;2023-02-15T12:33:55;102169.06;;;14.96;94.98
12987;BME280;58897;51.960;5.582;2023-02-15T12:36:32;102172.25;;;14.92;93.96
12987;BME280;58897;51.960;5.582;2023-02-15T12:42:03;102164.97;;;14.49;93.99
12987;BME280;58897;51.960;5.582;2023-02-15T12:44:34;102165.44;;;15.13;96.11
12987;BME280;58897;51.960;5.582;2023-02-15T12:47:20;102158.81;;;14.64;94.89
12987;BME280;58897;51.960;5.582;2023-02-15T12:50:14;102153.19;;;13.95;99.20
12987;BME280;58897;51.960;5.582;2023-02-15T12:52:46;102141.56;;;14.20;100.00
12987;BME280;58897;51.960;5.582;2023-02-15T12:55:23;102150.25;;;13.61;100.00
12987;BME280;58897;51.960;5.582;2023-02-15T12:58:08;102138.34;;;13.90;100.00
12987;BME280;58897;51.960;5.582;2023-02-15T13:00:35;102136.88;;;14.66;99.76
12987;BME280;58897;51.960;5.582;2023-02-15T13:03:02;102151.38;;;14.31;99.04
12987;BME280;58897;51.960;5.582;2023-02-15T13:05:36;102151.13;;;13.80;100.00
12987;BME280;58897;51.960;5.582;2023-02-15T13:08:17;102143.91;;;13.71;100.00
12987;BME280;58897;51.960;5.582;2023-02-15T13:10:54;102149.41;;;13.34;100.00
12987;BME280;58897;51.960;5.582;2023-02-15T13:13:26;102127.13;;;13.30;100.00
12987;BME280;58897;51.960;5.582;2023-02-15T13:15:56;102144.91;;;13.06;100.00
12987;BME280;58897;51.960;5.582;2023-02-15T13:18:39;102139.47;;;13.15;100.00
12987;BME280;58897;51.960;5.582;2023-02-15T13:21:15;102131.97;;;12.90;100.00
12987;BME280;58897;51.960;5.582;2023-02-15T13:23:46;102130.41;;;12.87;100.00
12987;BME280;58897;51.960;5.582;2023-02-15T13:26:18;102120.44;;;13.25;100.00
12987;BME280;58897;51.960;5.582;2023-02-15T13:29:03;102122.81;;;12.91;100.00
12987;BME280;58897;51.960;5.582;2023-02-15T13:31:31;102110.34;;;13.44;100.00
12987;BME280;58897;51.960;5.582;2023-02-15T13:34:19;102103.13;;;13.80;100.00
12987;BME280;58897;51.960;5.582;2023-02-15T13:42:04;102098.31;;;13.20;100.00
12987;BME280;58897;51.960;5.582;2023-02-15T13:50:31;102106.34;;;13.21;100.00
12987;BME280;58897;51.960;5.582;2023-02-15T13:55:57;102112.41;;;12.86;100.00
12987;BME280;58897;51.960;5.582;2023-02-15T14:04:11;102108.22;;;12.55;100.00
12987;BME280;58897;51.960;5.582;2023-02-15T14:07:04;102107.34;;;12.55;100.00
12987;BME280;58897;51.960;5.582;2023-02-15T14:12:50;102093.66;;;12.47;100.00
12987;BME280;58897;51.960;5.582;2023-02-15T14:15:30;102101.00;;;12.17;100.00
12987;BME280;58897;51.960;5.582;2023-02-15T14:26:23;102099.59;;;12.79;100.00
12987;BME280;58897;51.960;5.582;2023-02-15T14:31:43;102089.13;;;12.37;100.00
12987;BME280;58897;51.960;5.582;2023-02-15T14:43:06;102088.72;;;12.13;100.00
12987;BME280;58897;51.960;5.582;2023-02-15T14:45:41;102094.28;;;12.12;100.00
12987;BME280;58897;51.960;5.582;2023-02-15T14:48:21;102093.00;;;12.16;100.00
12987;BME280;58897;51.960;5.582;2023-02-15T14:50:51;102090.56;;;12.13;100.00
12987;BME280;58897;51.960;5.582;2023-02-15T15:04:01;102093.44;;;11.83;100.00
12987;BME280;58897;51.960;5.582;2023-02-15T15:06:32;102079.56;;;11.66;100.00
12987;BME280;58897;51.960;5.582;2023-02-15T15:09:24;102089.94;;;11.52;100.00
12987;BME280;58897;51.960;5.582;2023-02-15T15:12:15;102086.63;;;11.48;100.00
12987;BME280;58897;51.960;5.582;2023-02-15T15:15:00;102079.75;;;11.35;100.00
12987;BME280;58897;51.960;5.582;2023-02-15T15:31:24;102083.16;;;11.27;100.00
12987;BME280;58897;51.960;5.582;2023-02-15T15:34:34;102085.44;;;11.22;100.00
12987;BME280;58897;51.960;5.582;2023-02-15T15:37:44;102082.53;;;11.04;100.00
12987;BME280;58897;51.960;5.582;2023-02-15T15:40:40;102069.38;;;10.90;100.00
12987;BME280;58897;51.960;5.582;2023-02-15T15:43:31;102075.91;;;10.88;100.00